KNUW/NUW METAR and TAF weather

Enter ICAO airport designator
Station Type Date Time Source
KNUW METAR 2019/09/20 19:56 UTC NOAA

KNUW 201956Z 29004KT 10SM FEW018 BKN050 OVC250 17/12 A3016 RMK AO2 SLP211 T01670117


Station Type Date Time Source
KNUW Decoded METAR 2019/09/20 19:56 UTC NOAA

NAS WHIDBEY ISLAND, WA, United States (KNUW) 48-21N 122-39W 8M
Sep 20, 2019 - 03:56 PM EDT / 2019.09.20 1956 UTC
Wind: from the WNW (290 degrees) at 5 MPH (4 KT):0
Visibility: 10 mile(s):0
Sky conditions: overcast
Temperature: 62.1 F (16.7 C)
Dew Point: 53.1 F (11.7 C)
Relative Humidity: 72%
Pressure (altimeter): 30.16 in. Hg (1021 hPa)
ob: KNUW 201956Z 29004KT 10SM FEW018 BKN050 OVC250 17/12 A3016 RMK AO2 SLP211 T01670117
cycle: 20

Station Type Date Time Source
KNUW TAF 2019/09/20 23:57 UTC NOAA

TAF COR KNUW 1923/2023 VRB06KT 9999 VCSH FEW010 SCT025 BKN100 BKN250 QNH3007INS
TEMPO 2001/2006 00000KT 4800 -RA BR BKN012 OVC020
BECMG 2010/2012 VRB06KT 4800 BR SCT005 OVC010 QNH3005INS
TEMPO 2012/2018 2400 -DZ BR OVC005
FM202200 VRB06KT 9999 VCFG SCT010 BKN035 QNH3009INS T20/1923Z T13/2013Z COR 0055 FS30143

Example: see airport list